MQT weather

Sawyer International Airport
Marquette, Michigan, United States

Public forecast

Using degrees Fahrenheit for public forecast. Weather courtesy of forecast.io.

METAR (pilot weather report)

Retrieved 2019/07/18 17:48 UTC (38 minutes ago):

KSAW 181748Z 19010G15KT 10SM BKN032 27/19 A2971

TAF (pilot weather forecast)

Retrieved 2019/07/18 18:36 UTC (0 seconds ago):

TAF KSAW 181735Z 1818/1918 21010KT P6SM VCSH BKN050 FM182000 21009KT P6SM VCSH SCT050 FM182300 21007KT P6SM SCT070